createdAt,value
2019-03-02T00:00:12.811Z,9.10
2019-03-02T00:00:56.725Z,9.37
2019-03-02T00:01:33.500Z,9.10
2019-03-02T00:02:10.015Z,9.13
2019-03-02T00:02:45.571Z,9.30
2019-03-02T00:03:21.290Z,9.47
2019-03-02T00:03:56.923Z,9.27
2019-03-02T00:04:32.459Z,8.90
2019-03-02T00:05:08.026Z,9.13
2019-03-02T00:05:43.651Z,9.40
2019-03-02T00:06:19.332Z,9.40
2019-03-02T00:06:55.222Z,9.03
2019-03-02T00:07:30.780Z,9.33
2019-03-02T00:08:06.333Z,10.73
2019-03-02T00:08:41.899Z,11.07
2019-03-02T00:09:17.459Z,9.90
2019-03-02T00:09:53.007Z,11.07
2019-03-02T00:10:29.605Z,10.27
2019-03-02T00:11:05.450Z,10.23
2019-03-02T00:11:41.006Z,10.40
2019-03-02T00:12:16.569Z,10.00
2019-03-02T00:12:52.539Z,10.53
2019-03-02T00:13:28.114Z,10.67
2019-03-02T00:14:03.760Z,11.27
2019-03-02T00:14:39.679Z,11.40
2019-03-02T00:15:15.403Z,10.50
2019-03-02T00:15:50.943Z,10.70
2019-03-02T00:16:26.546Z,10.50
2019-03-02T00:17:02.445Z,10.83
2019-03-02T00:17:37.997Z,11.50
2019-03-02T00:18:13.679Z,11.10
2019-03-02T00:18:49.307Z,10.77
2019-03-02T00:19:24.881Z,10.90
2019-03-02T00:20:00.494Z,10.97
2019-03-02T00:20:36.371Z,11.50
2019-03-02T00:21:12.003Z,12.23
2019-03-02T00:21:47.910Z,11.60
2019-03-02T00:22:23.507Z,12.10
2019-03-02T00:22:59.085Z,11.93
2019-03-02T00:23:34.635Z,12.50
2019-03-02T00:24:10.263Z,12.37
2019-03-02T00:24:46.808Z,12.60
2019-03-02T00:25:22.639Z,12.30
2019-03-02T00:25:58.194Z,12.17
2019-03-02T00:26:33.742Z,12.60
2019-03-02T00:27:09.690Z,12.10
2019-03-02T00:27:45.249Z,12.63
2019-03-02T00:28:21.126Z,12.73
2019-03-02T00:28:57.043Z,12.17
2019-03-02T00:29:32.704Z,12.00
2019-03-02T00:30:08.906Z,12.80
2019-03-02T00:30:44.824Z,12.73
2019-03-02T00:31:20.448Z,13.97
2019-03-02T00:31:55.996Z,13.30
2019-03-02T00:32:31.579Z,13.07
2019-03-02T00:33:07.803Z,13.63
2019-03-02T00:33:43.687Z,13.00
2019-03-02T00:34:19.335Z,13.10
2019-03-02T00:34:54.891Z,14.13
2019-03-02T00:35:30.439Z,14.07
2019-03-02T00:36:05.990Z,13.60
2019-03-02T00:36:41.619Z,13.90
2019-03-02T00:37:17.645Z,13.77
2019-03-02T00:37:53.555Z,14.07
2019-03-02T00:38:29.106Z,14.67
2019-03-02T00:39:05.461Z,14.20
2019-03-02T00:39:41.293Z,14.80
2019-03-02T00:40:17.429Z,13.50
2019-03-02T00:40:53.683Z,14.60
2019-03-02T00:41:29.331Z,14.43
2019-03-02T00:42:05.507Z,15.43
2019-03-02T00:42:41.402Z,15.30
2019-03-02T00:43:16.959Z,14.53
2019-03-02T00:43:52.498Z,14.87
2019-03-02T00:44:28.319Z,15.50
2019-03-02T00:45:04.173Z,15.13
2019-03-02T00:45:39.747Z,14.97
2019-03-02T00:46:15.311Z,15.27
2019-03-02T00:46:51.974Z,15.77
2019-03-02T00:47:27.539Z,15.80
2019-03-02T00:48:03.086Z,15.83
2019-03-02T00:48:38.698Z,15.13
2019-03-02T00:49:14.273Z,15.33
2019-03-02T00:49:50.251Z,14.93
2019-03-02T00:50:26.114Z,15.83
2019-03-02T00:51:01.674Z,16.17
2019-03-02T00:51:37.302Z,14.83
2019-03-02T00:52:12.860Z,14.70
2019-03-02T00:52:49.166Z,15.57
2019-03-02T00:53:24.764Z,15.20
2019-03-02T00:54:00.930Z,16.43
2019-03-02T00:54:36.559Z,16.40
2019-03-02T00:55:12.099Z,15.93
2019-03-02T00:55:47.678Z,15.43
2019-03-02T00:56:23.235Z,14.73
2019-03-02T00:56:59.258Z,15.33
2019-03-02T00:57:35.390Z,15.80
2019-03-02T00:58:11.026Z,15.03
2019-03-02T00:58:47.254Z,15.63
2019-03-02T00:59:23.087Z,16.07
2019-03-02T00:59:58.650Z,14.77
2019-03-02T01:00:34.550Z,16.00
2019-03-02T01:01:10.410Z,15.93
2019-03-02T01:01:45.974Z,16.83
2019-03-02T01:02:21.584Z,16.00
2019-03-02T01:02:57.338Z,15.57
2019-03-02T01:03:32.888Z,15.67
2019-03-02T01:04:08.451Z,15.97
2019-03-02T01:04:44.328Z,16.37
2019-03-02T01:05:19.950Z,15.67
2019-03-02T01:05:55.708Z,15.03
2019-03-02T01:06:31.282Z,15.67
2019-03-02T01:07:06.866Z,16.13
2019-03-02T01:07:42.545Z,15.87
2019-03-02T01:08:18.163Z,16.50
2019-03-02T01:08:53.802Z,15.03
2019-03-02T01:09:29.699Z,15.40
2019-03-02T01:10:06.642Z,15.90
2019-03-02T01:10:42.499Z,16.47
2019-03-02T01:11:18.042Z,15.40
2019-03-02T01:11:53.607Z,15.23
2019-03-02T01:12:29.164Z,15.97
2019-03-02T01:13:05.138Z,16.30
2019-03-02T01:13:41.403Z,15.53
2019-03-02T01:14:16.967Z,15.53
2019-03-02T01:14:52.599Z,15.30
2019-03-02T01:15:28.149Z,16.73
2019-03-02T01:16:03.698Z,16.10
2019-03-02T01:16:39.330Z,16.60
2019-03-02T01:17:14.883Z,15.77
2019-03-02T01:17:50.456Z,16.20
2019-03-02T01:18:26.107Z,16.43
2019-03-02T01:19:02.023Z,16.20
2019-03-02T01:19:37.570Z,15.93
2019-03-02T01:20:14.342Z,16.00
2019-03-02T01:20:49.898Z,15.20
2019-03-02T01:21:25.467Z,15.50
2019-03-02T01:22:01.015Z,15.03
2019-03-02T01:22:36.577Z,14.97
2019-03-02T01:23:12.138Z,15.03
2019-03-02T01:23:47.717Z,14.43
2019-03-02T01:24:23.585Z,13.93
2019-03-02T01:24:59.195Z,13.80
2019-03-02T01:25:34.743Z,13.60
2019-03-02T01:26:10.294Z,14.67
2019-03-02T01:26:45.841Z,12.93
2019-03-02T01:27:21.467Z,12.80
2019-03-02T01:27:58.299Z,12.37
2019-03-02T01:28:33.849Z,12.83
2019-03-02T01:29:09.401Z,12.63
2019-03-02T01:29:45.308Z,12.00
2019-03-02T01:30:21.157Z,11.83
2019-03-02T01:30:56.714Z,11.80
2019-03-02T01:31:32.274Z,11.40
2019-03-02T01:32:07.831Z,11.63
2019-03-02T01:32:43.398Z,11.27
2019-03-02T01:33:20.364Z,11.17
2019-03-02T01:33:56.177Z,10.77
2019-03-02T01:34:31.806Z,10.87
2019-03-02T01:35:07.362Z,11.10
2019-03-02T01:35:43.414Z,10.67
2019-03-02T01:36:18.959Z,10.60
2019-03-02T01:36:54.638Z,11.20
2019-03-02T01:37:30.606Z,10.27
2019-03-02T01:38:06.153Z,10.87
2019-03-02T01:38:41.725Z,10.27
2019-03-02T01:39:17.270Z,10.50
2019-03-02T01:39:52.906Z,10.60
2019-03-02T01:40:28.558Z,10.33
2019-03-02T01:41:04.456Z,10.77
2019-03-02T01:41:39.991Z,11.07
2019-03-02T01:42:15.543Z,10.30
2019-03-02T01:42:51.103Z,9.97
2019-03-02T01:43:26.665Z,10.53
2019-03-02T01:44:02.227Z,9.83
2019-03-02T01:44:37.878Z,10.70
2019-03-02T01:45:14.978Z,10.80
2019-03-02T01:45:50.711Z,10.40
2019-03-02T01:46:26.299Z,10.10
2019-03-02T01:47:01.918Z,9.80
2019-03-02T01:47:38.544Z,10.80
2019-03-02T01:48:14.176Z,10.43
2019-03-02T01:48:50.092Z,10.40
2019-03-02T01:49:25.634Z,10.43
2019-03-02T01:50:01.228Z,10.20
2019-03-02T01:50:38.079Z,10.70
2019-03-02T01:51:13.645Z,10.50
2019-03-02T01:51:49.210Z,10.23
2019-03-02T01:52:24.770Z,10.00
2019-03-02T01:53:00.379Z,10.33
2019-03-02T01:53:36.000Z,10.47
2019-03-02T01:54:11.556Z,10.70
2019-03-02T01:54:47.188Z,10.70
2019-03-02T01:55:23.091Z,10.67
2019-03-02T01:55:58.658Z,10.77
2019-03-02T01:56:34.221Z,10.47
2019-03-02T01:57:09.770Z,10.23
2019-03-02T01:57:48.753Z,10.60
2019-03-02T01:58:24.631Z,11.17
2019-03-02T01:59:00.638Z,10.43
2019-03-02T01:59:38.751Z,11.00
2019-03-02T02:00:18.318Z,10.67
2019-03-02T02:00:53.886Z,10.90
2019-03-02T02:01:29.427Z,11.13
2019-03-02T02:02:05.010Z,11.60
2019-03-02T02:02:40.952Z,11.47
2019-03-02T02:03:16.502Z,12.67
2019-03-02T02:03:52.055Z,13.03
2019-03-02T02:04:29.207Z,13.40
2019-03-02T02:05:05.086Z,13.57
2019-03-02T02:05:40.716Z,13.90
2019-03-02T02:06:16.678Z,13.50
2019-03-02T02:06:52.329Z,13.03
2019-03-02T02:07:27.878Z,13.50
2019-03-02T02:08:03.435Z,15.13
2019-03-02T02:08:38.992Z,15.10
2019-03-02T02:09:14.908Z,14.93
2019-03-02T02:09:50.598Z,16.03
2019-03-02T02:10:26.154Z,15.70
2019-03-02T02:11:01.708Z,15.10
2019-03-02T02:11:37.398Z,16.27
2019-03-02T02:12:14.105Z,14.90
2019-03-02T02:12:49.930Z,15.17
2019-03-02T02:13:25.534Z,15.57
2019-03-02T02:14:01.408Z,15.30
2019-03-02T02:14:37.255Z,15.43
2019-03-02T02:15:15.141Z,15.93
2019-03-02T02:15:50.758Z,15.97
2019-03-02T02:16:26.328Z,16.07
2019-03-02T02:17:01.865Z,15.27
2019-03-02T02:17:37.674Z,16.27
2019-03-02T02:18:13.258Z,15.63
2019-03-02T02:18:48.816Z,15.77
2019-03-02T02:19:24.402Z,17.00
2019-03-02T02:19:59.975Z,17.37
2019-03-02T02:20:35.571Z,17.53
2019-03-02T02:21:11.130Z,16.30
2019-03-02T02:21:47.022Z,16.33
2019-03-02T02:22:22.574Z,15.97
2019-03-02T02:22:58.122Z,16.53
2019-03-02T02:23:34.403Z,17.00
2019-03-02T02:24:10.033Z,16.33
2019-03-02T02:24:45.608Z,16.07
2019-03-02T02:25:21.165Z,15.97
2019-03-02T02:25:56.694Z,16.27
2019-03-02T02:26:32.510Z,16.27
2019-03-02T02:27:08.327Z,15.73
2019-03-02T02:27:44.194Z,16.30
2019-03-02T02:28:19.750Z,15.73
2019-03-02T02:28:55.383Z,15.63
2019-03-02T02:29:30.922Z,16.30
2019-03-02T02:30:18.659Z,15.77
2019-03-02T02:30:53.414Z,15.73
2019-03-02T02:31:29.107Z,15.63
2019-03-02T02:32:04.650Z,16.23
2019-03-02T02:32:41.139Z,15.83
2019-03-02T02:33:16.687Z,16.23
2019-03-02T02:33:52.277Z,16.80
2019-03-02T02:34:28.151Z,16.50
2019-03-02T02:35:03.867Z,16.40
2019-03-02T02:35:40.223Z,16.57
2019-03-02T02:36:18.803Z,16.67
2019-03-02T02:36:58.215Z,16.87
2019-03-02T02:37:37.079Z,16.63
2019-03-02T02:38:11.268Z,17.10
2019-03-02T02:38:53.859Z,17.07
2019-03-02T02:39:24.383Z,16.87
2019-03-02T02:40:01.885Z,16.00
2019-03-02T02:40:39.595Z,17.20
2019-03-02T02:41:21.997Z,16.97
2019-03-02T02:41:52.769Z,16.80
2019-03-02T02:42:28.317Z,16.27
2019-03-02T02:43:04.184Z,15.87
2019-03-02T02:43:39.822Z,17.37
2019-03-02T02:44:15.375Z,16.37
2019-03-02T02:44:50.936Z,16.77
2019-03-02T02:45:26.534Z,16.50
2019-03-02T02:46:02.446Z,16.43
2019-03-02T02:46:38.011Z,16.70
2019-03-02T02:47:14.536Z,16.17
2019-03-02T02:47:52.097Z,16.37
2019-03-02T02:48:31.244Z,16.27
2019-03-02T02:49:05.601Z,16.60
2019-03-02T02:49:44.394Z,16.63
2019-03-02T02:50:28.271Z,16.20
2019-03-02T02:50:56.540Z,15.97
2019-03-02T02:51:32.171Z,16.10
2019-03-02T02:52:07.742Z,16.43
2019-03-02T02:52:43.291Z,17.23
2019-03-02T02:53:18.843Z,16.67
2019-03-02T02:53:54.728Z,15.77
2019-03-02T02:54:30.283Z,16.60
2019-03-02T02:55:06.105Z,15.97
2019-03-02T02:55:42.297Z,15.87
2019-03-02T02:56:19.600Z,16.13
2019-03-02T02:56:58.614Z,15.83
2019-03-02T02:57:33.614Z,16.23
2019-03-02T02:58:12.486Z,16.20
2019-03-02T02:58:55.632Z,15.63
2019-03-02T02:59:25.182Z,15.93
2019-03-02T03:00:00.735Z,15.87
2019-03-02T03:00:36.343Z,16.10
2019-03-02T03:01:11.898Z,16.57
2019-03-02T03:01:47.527Z,15.70
2019-03-02T03:02:23.069Z,16.40
2019-03-02T03:02:59.580Z,15.87
2019-03-02T03:03:35.146Z,16.23
2019-03-02T03:04:10.699Z,15.47
2019-03-02T03:04:46.801Z,16.10
2019-03-02T03:05:22.342Z,16.07
2019-03-02T03:05:57.906Z,16.60
2019-03-02T03:06:34.222Z,16.50
2019-03-02T03:07:12.459Z,16.63
2019-03-02T03:07:53.501Z,17.37
2019-03-02T03:08:44.657Z,16.37
2019-03-02T03:09:39.375Z,16.20
2019-03-02T03:10:34.172Z,16.30
2019-03-02T03:11:09.705Z,17.10
2019-03-02T03:11:45.734Z,16.80
2019-03-02T03:12:22.964Z,15.83
2019-03-02T03:13:02.059Z,16.63
2019-03-02T03:13:40.679Z,16.47
2019-03-02T03:14:14.957Z,17.40
2019-03-02T03:14:54.230Z,17.77
2019-03-02T03:15:37.126Z,17.20
2019-03-02T03:16:16.480Z,16.33
2019-03-02T03:16:54.025Z,17.27
2019-03-02T03:17:28.112Z,17.50
2019-03-02T03:18:07.266Z,17.50
2019-03-02T03:18:41.879Z,16.60
2019-03-02T03:19:17.420Z,17.60
2019-03-02T03:19:53.043Z,17.57
2019-03-02T03:20:28.582Z,17.60
2019-03-02T03:21:04.169Z,18.53
2019-03-02T03:21:40.068Z,17.83
2019-03-02T03:22:15.626Z,17.57
2019-03-02T03:22:51.434Z,18.53
2019-03-02T03:23:26.987Z,18.57
2019-03-02T03:24:03.827Z,18.40
2019-03-02T03:24:40.476Z,18.53
2019-03-02T03:25:18.046Z,18.77
2019-03-02T03:25:57.189Z,19.47
2019-03-02T03:26:35.197Z,19.17
2019-03-02T03:27:13.264Z,18.60
2019-03-02T03:27:51.406Z,19.33
2019-03-02T03:28:26.079Z,18.20
2019-03-02T03:29:05.206Z,18.13
2019-03-02T03:29:44.633Z,19.40
2019-03-02T03:30:17.011Z,18.97
2019-03-02T03:30:53.869Z,18.50
2019-03-02T03:31:31.655Z,19.53
2019-03-02T03:32:09.326Z,19.43
2019-03-02T03:32:54.180Z,19.50
2019-03-02T03:33:21.445Z,19.60
2019-03-02T03:33:57.278Z,19.77
2019-03-02T03:34:32.924Z,19.50
2019-03-02T03:35:16.668Z,18.73
2019-03-02T03:35:45.991Z,18.43
2019-03-02T03:36:21.573Z,18.80
2019-03-02T03:36:57.121Z,18.97
2019-03-02T03:37:34.760Z,20.13
2019-03-02T03:38:10.334Z,20.77
2019-03-02T03:38:45.874Z,19.83
2019-03-02T03:39:21.428Z,20.50
2019-03-02T03:39:57.608Z,19.73
2019-03-02T03:40:33.150Z,20.43
2019-03-02T03:41:08.728Z,20.10
2019-03-02T03:41:45.015Z,20.50
2019-03-02T03:42:23.055Z,20.17
2019-03-02T03:43:02.534Z,20.50
2019-03-02T03:43:41.535Z,20.50
2019-03-02T03:44:17.712Z,20.07
2019-03-02T03:44:50.510Z,20.07
2019-03-02T03:45:28.397Z,18.77
2019-03-02T03:46:03.328Z,20.20
2019-03-02T03:46:38.957Z,19.60
2019-03-02T03:47:14.517Z,20.37
2019-03-02T03:47:50.067Z,20.00
2019-03-02T03:48:25.642Z,19.43
2019-03-02T03:49:01.208Z,20.40
2019-03-02T03:49:36.752Z,20.83
2019-03-02T03:50:14.151Z,20.00
2019-03-02T03:50:52.354Z,20.03
2019-03-02T03:51:30.611Z,20.73
2019-03-02T03:52:09.311Z,20.03
2019-03-02T03:52:44.089Z,20.77
2019-03-02T03:53:21.873Z,20.43
2019-03-02T03:54:01.620Z,20.37
2019-03-02T03:54:35.547Z,21.30
2019-03-02T03:55:11.107Z,20.90
2019-03-02T03:55:46.662Z,20.53
2019-03-02T03:56:22.231Z,21.53
2019-03-02T03:56:57.807Z,20.50
2019-03-02T03:57:33.607Z,20.37
2019-03-02T03:58:09.163Z,20.73
2019-03-02T03:58:44.702Z,20.80
2019-03-02T03:59:20.680Z,21.63
2019-03-02T03:59:58.670Z,21.03
2019-03-02T04:00:38.277Z,20.93
2019-03-02T04:01:17.013Z,21.50
2019-03-02T04:01:52.256Z,20.33
2019-03-02T04:02:26.207Z,20.87
2019-03-02T04:03:02.189Z,20.83
2019-03-02T04:03:38.114Z,21.20
2019-03-02T04:04:13.646Z,19.97
2019-03-02T04:04:49.208Z,21.03
2019-03-02T04:05:24.746Z,20.80
2019-03-02T04:06:00.322Z,21.37
2019-03-02T04:06:35.880Z,21.07
2019-03-02T04:07:11.451Z,20.70
2019-03-02T04:07:49.644Z,20.43
2019-03-02T04:08:28.824Z,20.40
2019-03-02T04:09:03.123Z,21.10
2019-03-02T04:09:42.891Z,20.67
2019-03-02T04:10:24.521Z,20.97
2019-03-02T04:10:54.694Z,20.23
2019-03-02T04:11:30.576Z,20.93
2019-03-02T04:12:06.682Z,21.60
2019-03-02T04:12:42.471Z,21.37
2019-03-02T04:13:18.036Z,21.23
2019-03-02T04:13:53.953Z,21.10
2019-03-02T04:14:29.502Z,21.07
2019-03-02T04:15:05.064Z,21.70
2019-03-02T04:15:43.087Z,21.00
2019-03-02T04:16:20.550Z,19.87
2019-03-02T04:17:00.129Z,21.37
2019-03-02T04:17:39.186Z,20.83
2019-03-02T04:18:54.666Z,20.87
2019-03-02T04:19:34.100Z,20.90
2019-03-02T04:20:12.475Z,21.80
2019-03-02T04:20:49.687Z,20.77
2019-03-02T04:21:31.940Z,21.27
2019-03-02T04:22:09.494Z,21.47
2019-03-02T04:22:46.046Z,21.10
2019-03-02T04:23:22.350Z,20.57
2019-03-02T04:24:01.215Z,19.93
2019-03-02T04:24:39.814Z,20.37
2019-03-02T04:25:18.019Z,21.30
2019-03-02T04:25:52.041Z,21.00
2019-03-02T04:26:31.359Z,20.70
2019-03-02T04:27:05.478Z,22.03
2019-03-02T04:27:41.032Z,20.23
2019-03-02T04:28:16.592Z,20.77
2019-03-02T04:28:52.438Z,20.50
2019-03-02T04:29:27.979Z,21.17
2019-03-02T04:30:03.535Z,21.20
2019-03-02T04:30:39.422Z,21.37
2019-03-02T04:31:14.963Z,20.53
2019-03-02T04:31:51.041Z,19.20
2019-03-02T04:32:27.811Z,20.50
2019-03-02T04:33:05.995Z,19.90
2019-03-02T04:33:43.248Z,19.70
2019-03-02T04:34:21.163Z,19.93
2019-03-02T04:34:57.693Z,20.17
2019-03-02T04:35:33.729Z,19.90
2019-03-02T04:36:11.170Z,18.30
2019-03-02T04:36:47.622Z,20.23
2019-03-02T04:37:24.923Z,19.60
2019-03-02T04:38:02.243Z,19.90
2019-03-02T04:38:38.981Z,19.93
2019-03-02T04:39:15.010Z,19.17
2019-03-02T04:39:51.125Z,18.90
2019-03-02T04:40:29.094Z,18.97
2019-03-02T04:41:04.849Z,19.57
2019-03-02T04:41:40.845Z,19.47
2019-03-02T04:42:16.682Z,19.20
2019-03-02T04:42:52.535Z,19.10
2019-03-02T04:43:28.087Z,19.50
2019-03-02T04:44:03.619Z,18.67
2019-03-02T04:44:39.226Z,19.53
2019-03-02T04:45:15.459Z,18.53
2019-03-02T04:45:51.517Z,18.63
2019-03-02T04:46:27.079Z,19.80
2019-03-02T04:47:02.610Z,19.23
2019-03-02T04:47:38.170Z,18.23
2019-03-02T04:48:13.734Z,20.00
2019-03-02T04:48:49.291Z,19.07
2019-03-02T04:49:25.118Z,19.47
2019-03-02T04:50:00.948Z,19.90
2019-03-02T04:50:37.046Z,19.67
2019-03-02T04:51:12.667Z,18.50
2019-03-02T04:51:48.611Z,19.23
2019-03-02T04:52:24.431Z,20.20
2019-03-02T04:52:59.979Z,19.47
2019-03-02T04:53:36.794Z,19.93
2019-03-02T04:54:12.343Z,19.20
2019-03-02T04:54:47.888Z,19.80
2019-03-02T04:55:23.434Z,19.80
2019-03-02T04:55:59.234Z,21.17
2019-03-02T04:56:34.778Z,20.53
2019-03-02T04:57:11.550Z,20.57
2019-03-02T04:57:47.347Z,20.00
2019-03-02T04:58:23.167Z,19.67
2019-03-02T04:58:58.718Z,19.77
2019-03-02T04:59:34.272Z,19.97
2019-03-02T05:00:12.263Z,20.23
2019-03-02T05:00:47.807Z,20.93
2019-03-02T05:01:23.350Z,21.57
2019-03-02T05:01:59.971Z,20.23
2019-03-02T05:02:35.674Z,20.60
2019-03-02T05:03:11.206Z,20.50
2019-03-02T05:03:47.123Z,22.43
2019-03-02T05:04:22.685Z,22.23
2019-03-02T05:04:58.250Z,22.17
2019-03-02T05:05:33.803Z,22.13
2019-03-02T05:06:10.610Z,23.23
2019-03-02T05:06:46.145Z,23.83
2019-03-02T05:07:21.681Z,22.80
2019-03-02T05:07:57.235Z,22.83
2019-03-02T05:08:32.794Z,23.77
2019-03-02T05:09:08.622Z,22.77
2019-03-02T05:09:44.201Z,22.90
2019-03-02T05:10:20.042Z,22.37
2019-03-02T05:10:55.590Z,22.57
2019-03-02T05:11:31.143Z,24.63
2019-03-02T05:12:07.250Z,23.87
2019-03-02T05:12:43.077Z,24.67
2019-03-02T05:13:19.167Z,24.07
2019-03-02T05:13:54.706Z,23.63
2019-03-02T05:14:30.270Z,23.70
2019-03-02T05:15:07.612Z,24.53
2019-03-02T05:15:43.159Z,25.80
2019-03-02T05:16:18.784Z,24.43
2019-03-02T05:16:54.348Z,24.63
2019-03-02T05:17:30.611Z,24.80
2019-03-02T05:18:06.183Z,24.53
2019-03-02T05:18:41.728Z,27.40
2019-03-02T05:19:17.278Z,26.03
2019-03-02T05:19:52.847Z,26.97
2019-03-02T05:20:28.403Z,27.27
2019-03-02T05:21:03.957Z,26.83
2019-03-02T05:21:39.826Z,27.47
2019-03-02T05:22:18.758Z,27.63
2019-03-02T05:22:55.990Z,27.90
2019-03-02T05:23:31.707Z,27.70
2019-03-02T05:24:09.145Z,27.00
2019-03-02T05:24:45.459Z,26.13
2019-03-02T05:25:21.007Z,27.60
2019-03-02T05:25:56.558Z,26.87
2019-03-02T05:26:32.547Z,26.00
2019-03-02T05:27:08.095Z,26.77
2019-03-02T05:27:43.754Z,26.40
2019-03-02T05:28:19.318Z,27.03
2019-03-02T05:28:55.290Z,26.13
2019-03-02T05:29:31.267Z,26.40
2019-03-02T05:30:07.655Z,28.60
2019-03-02T05:30:43.508Z,28.03
2019-03-02T05:31:19.370Z,29.00
2019-03-02T05:31:54.934Z,30.97
2019-03-02T05:32:30.551Z,29.97
2019-03-02T05:33:06.102Z,31.07
2019-03-02T05:33:42.673Z,29.43
2019-03-02T05:34:18.218Z,29.93
2019-03-02T05:34:53.855Z,30.47
2019-03-02T05:35:29.454Z,31.27
2019-03-02T05:36:05.362Z,29.60
2019-03-02T05:36:40.981Z,29.90
2019-03-02T05:37:17.309Z,32.03
2019-03-02T05:37:52.920Z,32.23
2019-03-02T05:38:28.755Z,32.80
2019-03-02T05:39:05.822Z,32.40
2019-03-02T05:39:41.543Z,32.63
2019-03-02T05:40:17.095Z,32.17
2019-03-02T05:40:52.690Z,32.67
2019-03-02T05:41:28.247Z,33.10
2019-03-02T05:42:03.797Z,32.97
2019-03-02T05:42:39.343Z,33.80
2019-03-02T05:43:15.261Z,34.03
2019-03-02T05:43:50.815Z,33.87
2019-03-02T05:44:26.635Z,34.10
2019-03-02T05:45:02.220Z,33.40
2019-03-02T05:45:38.743Z,34.73
2019-03-02T05:46:14.554Z,33.67
2019-03-02T05:46:50.098Z,35.07
2019-03-02T05:47:26.027Z,33.33
2019-03-02T05:48:04.877Z,35.13
2019-03-02T05:48:42.497Z,34.33
2019-03-02T05:49:18.583Z,35.00
2019-03-02T05:49:54.709Z,34.97
2019-03-02T05:50:31.620Z,33.53
2019-03-02T05:51:07.761Z,33.80
2019-03-02T05:51:44.069Z,35.33
2019-03-02T05:52:20.905Z,33.67
2019-03-02T05:52:56.450Z,34.53
2019-03-02T05:53:32.035Z,33.87
2019-03-02T05:54:07.669Z,34.20
2019-03-02T05:54:43.221Z,35.27
2019-03-02T05:55:19.739Z,37.67
2019-03-02T05:55:55.309Z,36.93
2019-03-02T05:56:31.127Z,37.50
2019-03-02T05:57:06.917Z,36.07
2019-03-02T05:57:45.355Z,38.37
2019-03-02T05:58:20.900Z,38.53
2019-03-02T05:58:56.731Z,36.73
2019-03-02T05:59:32.275Z,37.77
2019-03-02T06:00:09.431Z,37.57
2019-03-02T06:00:45.023Z,36.63
2019-03-02T06:01:20.830Z,36.70
2019-03-02T06:01:56.376Z,37.27
2019-03-02T06:02:31.915Z,35.97
2019-03-02T06:03:07.795Z,37.77
2019-03-02T06:03:46.017Z,38.13
2019-03-02T06:04:22.090Z,38.60
2019-03-02T06:04:58.074Z,37.10
2019-03-02T06:05:34.188Z,37.80
2019-03-02T06:06:09.755Z,39.80
2019-03-02T06:06:45.307Z,39.23
2019-03-02T06:07:20.854Z,38.73
2019-03-02T06:07:57.587Z,41.27
2019-03-02T06:08:35.586Z,40.50
2019-03-02T06:09:13.758Z,41.30
2019-03-02T06:09:50.190Z,39.97
2019-03-02T06:10:26.373Z,38.93
2019-03-02T06:11:03.358Z,38.67
2019-03-02T06:11:40.371Z,39.33
2019-03-02T06:12:16.424Z,39.47
2019-03-02T06:12:53.033Z,42.67
2019-03-02T06:13:29.765Z,40.93
2019-03-02T06:14:05.424Z,40.77
2019-03-02T06:14:40.959Z,41.30
2019-03-02T06:15:16.762Z,40.50
2019-03-02T06:15:52.376Z,43.50
2019-03-02T06:16:27.923Z,41.30
2019-03-02T06:17:03.465Z,41.93
2019-03-02T06:17:39.254Z,42.30
2019-03-02T06:18:14.812Z,41.23
2019-03-02T06:18:50.350Z,40.73
2019-03-02T06:19:25.898Z,41.13
2019-03-02T06:20:01.463Z,40.73
2019-03-02T06:20:37.020Z,41.13
2019-03-02T06:21:12.603Z,41.73
2019-03-02T06:21:48.410Z,40.90
2019-03-02T06:22:24.235Z,41.80
2019-03-02T06:22:59.791Z,41.37
2019-03-02T06:23:36.315Z,42.67
2019-03-02T06:24:11.871Z,43.53
2019-03-02T06:24:47.422Z,42.50
2019-03-02T06:25:23.300Z,42.47
2019-03-02T06:25:59.126Z,43.40
2019-03-02T06:26:36.699Z,45.93
2019-03-02T06:27:13.331Z,44.53
2019-03-02T06:27:48.871Z,44.57
2019-03-02T06:28:24.410Z,43.00
2019-03-02T06:28:59.959Z,43.73
2019-03-02T06:29:35.843Z,43.97
2019-03-02T06:30:11.671Z,41.83
2019-03-02T06:30:47.375Z,43.97
2019-03-02T06:31:22.921Z,44.37
2019-03-02T06:31:58.478Z,44.97
2019-03-02T06:32:34.028Z,43.33
2019-03-02T06:33:09.569Z,44.40
2019-03-02T06:33:45.630Z,44.30
2019-03-02T06:34:21.261Z,44.43
2019-03-02T06:34:57.071Z,43.10
2019-03-02T06:35:32.979Z,43.13
2019-03-02T06:36:10.182Z,44.63
2019-03-02T06:36:46.033Z,45.03
2019-03-02T06:37:21.810Z,42.30
2019-03-02T06:37:57.398Z,45.37
2019-03-02T06:38:33.464Z,48.03
2019-03-02T06:39:09.150Z,46.77
2019-03-02T06:39:45.211Z,46.13
2019-03-02T06:40:23.491Z,45.50
2019-03-02T06:40:58.931Z,46.57
2019-03-02T06:41:34.925Z,46.60
2019-03-02T06:42:11.181Z,46.83
2019-03-02T06:42:46.847Z,45.37
2019-03-02T06:43:22.826Z,46.47
2019-03-02T06:43:59.160Z,46.27
2019-03-02T06:44:36.394Z,45.33
2019-03-02T06:45:12.054Z,44.63
2019-03-02T06:45:47.947Z,48.70
2019-03-02T06:46:23.784Z,48.20
2019-03-02T06:46:59.359Z,48.53
2019-03-02T06:47:35.016Z,49.10
2019-03-02T06:48:10.958Z,48.67
2019-03-02T06:48:47.078Z,48.30
2019-03-02T06:49:22.886Z,49.07
2019-03-02T06:49:59.344Z,47.10
2019-03-02T06:50:36.792Z,48.43
2019-03-02T06:51:12.576Z,49.53
2019-03-02T06:51:49.603Z,49.03
2019-03-02T06:52:26.199Z,48.40
2019-03-02T06:53:02.500Z,49.30
2019-03-02T06:53:39.406Z,51.13
2019-03-02T06:54:15.242Z,48.57
2019-03-02T06:54:50.835Z,48.13
2019-03-02T06:55:26.391Z,47.73
2019-03-02T06:56:02.038Z,48.07
2019-03-02T06:56:39.489Z,49.07
2019-03-02T06:57:15.511Z,47.90
2019-03-02T06:57:51.622Z,49.27
2019-03-02T06:58:29.388Z,49.53
2019-03-02T06:59:05.009Z,48.10
2019-03-02T06:59:40.673Z,47.50
2019-03-02T07:00:18.323Z,48.57
2019-03-02T07:00:54.125Z,47.47
2019-03-02T07:01:29.975Z,46.93
2019-03-02T07:02:05.567Z,47.30
2019-03-02T07:02:41.129Z,45.87
2019-03-02T07:03:16.949Z,48.17
2019-03-02T07:03:52.542Z,47.10
2019-03-02T07:04:28.102Z,48.23
2019-03-02T07:05:03.827Z,47.57
2019-03-02T07:05:39.380Z,46.10
2019-03-02T07:06:15.195Z,48.00
2019-03-02T07:06:50.881Z,46.37
2019-03-02T07:07:26.462Z,46.63
2019-03-02T07:08:02.018Z,47.27
2019-03-02T07:08:37.611Z,48.63
2019-03-02T07:09:13.618Z,47.43
2019-03-02T07:09:49.180Z,48.37
2019-03-02T07:10:24.740Z,46.30
2019-03-02T07:11:00.278Z,46.40
2019-03-02T07:11:35.835Z,48.10
2019-03-02T07:12:11.766Z,47.30
2019-03-02T07:12:47.334Z,45.50
2019-03-02T07:13:23.116Z,43.47
2019-03-02T07:13:58.994Z,46.33
2019-03-02T07:14:34.583Z,45.50
2019-03-02T07:15:13.230Z,46.27
2019-03-02T07:15:48.399Z,46.10
2019-03-02T07:16:23.964Z,44.67
2019-03-02T07:16:59.503Z,45.63
2019-03-02T07:17:56.730Z,43.17
2019-03-02T07:18:46.306Z,46.77
2019-03-02T07:19:24.488Z,44.93
2019-03-02T07:20:08.759Z,45.40
2019-03-02T07:20:44.749Z,46.17
2019-03-02T07:21:20.501Z,47.43
2019-03-02T07:21:57.569Z,46.03
2019-03-02T07:22:33.398Z,45.00
2019-03-02T07:23:08.970Z,43.80
2019-03-02T07:23:44.770Z,47.07
2019-03-02T07:24:20.491Z,46.43
2019-03-02T07:24:56.437Z,46.40
2019-03-02T07:25:31.989Z,44.07
2019-03-02T07:26:07.912Z,44.57
2019-03-02T07:26:43.476Z,46.17
2019-03-02T07:27:19.026Z,45.03
2019-03-02T07:27:54.627Z,43.90
2019-03-02T07:28:30.442Z,44.27
2019-03-02T07:29:06.012Z,44.23
2019-03-02T07:29:41.560Z,45.80
2019-03-02T07:30:17.107Z,43.63
2019-03-02T07:30:52.634Z,43.87
2019-03-02T07:31:28.183Z,45.03
2019-03-02T07:32:03.767Z,45.10
2019-03-02T07:32:39.327Z,42.73
2019-03-02T07:33:15.213Z,43.50
2019-03-02T07:33:50.800Z,44.33
2019-03-02T07:34:26.342Z,43.40
2019-03-02T07:35:02.263Z,43.30
2019-03-02T07:35:38.064Z,42.93
2019-03-02T07:36:13.602Z,43.60
2019-03-02T07:36:49.147Z,42.80
2019-03-02T07:37:24.962Z,42.47
2019-03-02T07:38:00.540Z,44.40
2019-03-02T07:38:36.141Z,43.37
2019-03-02T07:39:11.876Z,44.67
2019-03-02T07:39:47.678Z,43.10
2019-03-02T07:40:23.649Z,43.60
2019-03-02T07:40:59.303Z,43.47
2019-03-02T07:41:36.159Z,43.47
2019-03-02T07:42:11.795Z,44.77
2019-03-02T07:42:47.366Z,42.23
2019-03-02T07:43:22.938Z,43.87
2019-03-02T07:43:59.784Z,42.63
2019-03-02T07:44:36.136Z,42.40
2019-03-02T07:45:13.523Z,43.20
2019-03-02T07:45:49.488Z,43.63
2019-03-02T07:46:25.113Z,42.33
2019-03-02T07:47:01.304Z,41.97
2019-03-02T07:47:36.971Z,41.93